sensor_id;sensor_type;location;lat;lon;timestamp;temperature;humidity
68109;SHT30;54893;49.864;19.084;2023-12-14T00:04:20;3.49;99.99
68109;SHT30;54893;49.864;19.084;2023-12-14T00:09:20;3.48;99.99
68109;SHT30;54893;49.864;19.084;2023-12-14T00:14:20;3.43;99.99
68109;SHT30;54893;49.864;19.084;2023-12-14T00:19:23;3.43;99.99
68109;SHT30;54893;49.864;19.084;2023-12-14T00:24:24;3.46;99.99
68109;SHT30;54893;49.864;19.084;2023-12-14T00:29:25;3.48;99.99
68109;SHT30;54893;49.864;19.084;2023-12-14T00:34:25;3.48;99.99
68109;SHT30;54893;49.864;19.084;2023-12-14T00:39:25;3.48;99.99
68109;SHT30;54893;49.864;19.084;2023-12-14T00:44:26;3.48;99.99
68109;SHT30;54893;49.864;19.084;2023-12-14T00:49:26;3.50;99.99
68109;SHT30;54893;49.864;19.084;2023-12-14T00:54:28;3.52;99.99
68109;SHT30;54893;49.864;19.084;2023-12-14T00:59:29;3.53;99.99
68109;SHT30;54893;49.864;19.084;2023-12-14T01:04:29;3.49;99.99
68109;SHT30;54893;49.864;19.084;2023-12-14T01:09:29;3.49;99.99
68109;SHT30;54893;49.864;19.084;2023-12-14T01:14:30;3.49;99.99
68109;SHT30;54893;49.864;19.084;2023-12-14T01:19:30;3.50;99.99
68109;SHT30;54893;49.864;19.084;2023-12-14T01:24:30;3.53;99.99
68109;SHT30;54893;49.864;19.084;2023-12-14T01:29:31;3.52;99.99
68109;SHT30;54893;49.864;19.084;2023-12-14T01:34:31;3.44;99.99
68109;SHT30;54893;49.864;19.084;2023-12-14T01:39:32;3.39;99.99
68109;SHT30;54893;49.864;19.084;2023-12-14T01:44:32;3.32;99.99
68109;SHT30;54893;49.864;19.084;2023-12-14T01:49:33;3.30;99.99
68109;SHT30;54893;49.864;19.084;2023-12-14T01:54:34;3.26;99.99
68109;SHT30;54893;49.864;19.084;2023-12-14T01:59:34;3.29;99.99
68109;SHT30;54893;49.864;19.084;2023-12-14T02:04:35;3.28;99.99
68109;SHT30;54893;49.864;19.084;2023-12-14T02:09:35;3.25;99.99
68109;SHT30;54893;49.864;19.084;2023-12-14T02:14:36;3.26;99.99
68109;SHT30;54893;49.864;19.084;2023-12-14T02:19:36;3.23;99.99
68109;SHT30;54893;49.864;19.084;2023-12-14T02:24:36;3.20;99.99
68109;SHT30;54893;49.864;19.084;2023-12-14T02:29:37;3.15;99.99
68109;SHT30;54893;49.864;19.084;2023-12-14T02:34:37;3.09;99.99
68109;SHT30;54893;49.864;19.084;2023-12-14T02:39:37;3.06;99.99
68109;SHT30;54893;49.864;19.084;2023-12-14T02:44:38;3.09;99.99
68109;SHT30;54893;49.864;19.084;2023-12-14T02:49:38;3.08;99.99
68109;SHT30;54893;49.864;19.084;2023-12-14T02:54:39;3.05;99.99
68109;SHT30;54893;49.864;19.084;2023-12-14T02:59:40;3.08;99.99
68109;SHT30;54893;49.864;19.084;2023-12-14T03:04:40;3.08;99.99
68109;SHT30;54893;49.864;19.084;2023-12-14T03:09:40;3.06;99.99
68109;SHT30;54893;49.864;19.084;2023-12-14T03:14:44;3.05;99.99
68109;SHT30;54893;49.864;19.084;2023-12-14T03:19:44;3.02;99.99
68109;SHT30;54893;49.864;19.084;2023-12-14T03:24:45;3.04;99.99
68109;SHT30;54893;49.864;19.084;2023-12-14T03:29:45;3.05;99.99
68109;SHT30;54893;49.864;19.084;2023-12-14T03:34:46;3.04;99.99
68109;SHT30;54893;49.864;19.084;2023-12-14T03:39:46;3.02;99.99
68109;SHT30;54893;49.864;19.084;2023-12-14T03:44:46;3.02;99.99
68109;SHT30;54893;49.864;19.084;2023-12-14T03:49:47;3.02;99.99
68109;SHT30;54893;49.864;19.084;2023-12-14T03:54:49;3.02;99.99
68109;SHT30;54893;49.864;19.084;2023-12-14T03:59:49;3.08;99.99
68109;SHT30;54893;49.864;19.084;2023-12-14T04:04:50;3.02;99.99
68109;SHT30;54893;49.864;19.084;2023-12-14T04:09:50;3.01;99.99
68109;SHT30;54893;49.864;19.084;2023-12-14T04:14:50;3.01;99.99
68109;SHT30;54893;49.864;19.084;2023-12-14T04:19:51;2.96;99.99
68109;SHT30;54893;49.864;19.084;2023-12-14T04:24:51;3.04;99.99
68109;SHT30;54893;49.864;19.084;2023-12-14T04:29:52;2.98;99.99
68109;SHT30;54893;49.864;19.084;2023-12-14T04:34:53;2.96;99.99
68109;SHT30;54893;49.864;19.084;2023-12-14T04:39:53;2.94;99.99
68109;SHT30;54893;49.864;19.084;2023-12-14T04:44:53;2.91;99.99
68109;SHT30;54893;49.864;19.084;2023-12-14T04:49:54;2.92;99.99
68109;SHT30;54893;49.864;19.084;2023-12-14T04:54:54;2.85;99.99
68109;SHT30;54893;49.864;19.084;2023-12-14T04:59:54;2.87;99.99
68109;SHT30;54893;49.864;19.084;2023-12-14T05:04:55;2.89;99.99
68109;SHT30;54893;49.864;19.084;2023-12-14T05:09:55;2.89;99.99
68109;SHT30;54893;49.864;19.084;2023-12-14T05:14:56;2.88;99.99
68109;SHT30;54893;49.864;19.084;2023-12-14T05:19:56;2.87;99.99
68109;SHT30;54893;49.864;19.084;2023-12-14T05:24:57;2.91;99.99
68109;SHT30;54893;49.864;19.084;2023-12-14T05:29:57;2.89;99.99
68109;SHT30;54893;49.864;19.084;2023-12-14T05:34:57;2.88;99.99
68109;SHT30;54893;49.864;19.084;2023-12-14T05:39:59;2.92;99.99
68109;SHT30;54893;49.864;19.084;2023-12-14T05:45:00;2.91;99.99
68109;SHT30;54893;49.864;19.084;2023-12-14T05:50:04;2.95;99.99
68109;SHT30;54893;49.864;19.084;2023-12-14T05:55:07;2.99;99.99
68109;SHT30;54893;49.864;19.084;2023-12-14T06:00:07;2.96;99.99
68109;SHT30;54893;49.864;19.084;2023-12-14T06:05:08;2.99;99.99
68109;SHT30;54893;49.864;19.084;2023-12-14T06:10:09;3.02;99.99
68109;SHT30;54893;49.864;19.084;2023-12-14T06:15:10;2.99;99.99
68109;SHT30;54893;49.864;19.084;2023-12-14T06:20:13;2.98;99.99
68109;SHT30;54893;49.864;19.084;2023-12-14T06:25:13;2.92;99.99
68109;SHT30;54893;49.864;19.084;2023-12-14T06:30:14;2.95;99.99
68109;SHT30;54893;49.864;19.084;2023-12-14T06:35:14;2.96;99.99
68109;SHT30;54893;49.864;19.084;2023-12-14T06:40:14;2.94;99.99
68109;SHT30;54893;49.864;19.084;2023-12-14T06:45:15;2.92;99.99
68109;SHT30;54893;49.864;19.084;2023-12-14T06:50:15;2.95;99.99
68109;SHT30;54893;49.864;19.084;2023-12-14T06:55:16;3.02;99.99
68109;SHT30;54893;49.864;19.084;2023-12-14T07:00:16;3.04;99.99
68109;SHT30;54893;49.864;19.084;2023-12-14T07:05:17;3.01;99.99
68109;SHT30;54893;49.864;19.084;2023-12-14T07:10:17;2.99;99.99
68109;SHT30;54893;49.864;19.084;2023-12-14T07:15:18;2.99;99.99
68109;SHT30;54893;49.864;19.084;2023-12-14T07:20:18;3.08;99.99
68109;SHT30;54893;49.864;19.084;2023-12-14T07:25:19;3.15;99.99
68109;SHT30;54893;49.864;19.084;2023-12-14T07:30:19;3.19;99.99
68109;SHT30;54893;49.864;19.084;2023-12-14T07:35:19;3.18;99.99
68109;SHT30;54893;49.864;19.084;2023-12-14T07:40:20;3.20;99.99
68109;SHT30;54893;49.864;19.084;2023-12-14T07:45:20;3.20;99.99
68109;SHT30;54893;49.864;19.084;2023-12-14T07:50:20;3.20;99.99
68109;SHT30;54893;49.864;19.084;2023-12-14T07:55:21;3.18;99.99
68109;SHT30;54893;49.864;19.084;2023-12-14T08:00:21;3.20;99.99
68109;SHT30;54893;49.864;19.084;2023-12-14T08:05:22;3.20;99.99
68109;SHT30;54893;49.864;19.084;2023-12-14T08:10:22;3.18;99.99
68109;SHT30;54893;49.864;19.084;2023-12-14T08:15:22;3.12;99.99
68109;SHT30;54893;49.864;19.084;2023-12-14T08:20:23;3.18;99.99
68109;SHT30;54893;49.864;19.084;2023-12-14T08:25:23;3.19;99.99
68109;SHT30;54893;49.864;19.084;2023-12-14T08:30:24;3.18;99.99
68109;SHT30;54893;49.864;19.084;2023-12-14T08:35:24;3.26;99.99
68109;SHT30;54893;49.864;19.084;2023-12-14T08:40:24;3.23;99.99
68109;SHT30;54893;49.864;19.084;2023-12-14T08:45:25;3.28;99.99
68109;SHT30;54893;49.864;19.084;2023-12-14T08:50:25;3.33;99.99
68109;SHT30;54893;49.864;19.084;2023-12-14T08:55:28;3.39;99.99
68109;SHT30;54893;49.864;19.084;2023-12-14T09:00:29;3.44;99.99
68109;SHT30;54893;49.864;19.084;2023-12-14T09:05:29;3.46;99.99
68109;SHT30;54893;49.864;19.084;2023-12-14T09:10:29;3.44;99.99
68109;SHT30;54893;49.864;19.084;2023-12-14T09:15:31;3.38;99.99
68109;SHT30;54893;49.864;19.084;2023-12-14T09:20:31;3.36;99.99
68109;SHT30;54893;49.864;19.084;2023-12-14T09:25:32;3.33;99.99
68109;SHT30;54893;49.864;19.084;2023-12-14T09:30:33;3.44;99.99
68109;SHT30;54893;49.864;19.084;2023-12-14T09:35:34;3.39;99.99
68109;SHT30;54893;49.864;19.084;2023-12-14T09:40:36;3.42;99.99
68109;SHT30;54893;49.864;19.084;2023-12-14T09:45:38;3.39;99.99
68109;SHT30;54893;49.864;19.084;2023-12-14T09:50:42;3.39;99.99
68109;SHT30;54893;49.864;19.084;2023-12-14T09:55:43;3.42;99.99
68109;SHT30;54893;49.864;19.084;2023-12-14T10:00:44;3.38;99.99
68109;SHT30;54893;49.864;19.084;2023-12-14T10:05:45;3.38;99.99
68109;SHT30;54893;49.864;19.084;2023-12-14T10:10:47;3.46;99.99
68109;SHT30;54893;49.864;19.084;2023-12-14T10:15:52;3.48;99.99
68109;SHT30;54893;49.864;19.084;2023-12-14T10:20:53;3.42;99.99
68109;SHT30;54893;49.864;19.084;2023-12-14T10:25:53;3.48;99.99
68109;SHT30;54893;49.864;19.084;2023-12-14T10:30:54;3.40;99.99
68109;SHT30;54893;49.864;19.084;2023-12-14T10:35:55;3.44;99.99
68109;SHT30;54893;49.864;19.084;2023-12-14T10:40:57;3.52;99.99
68109;SHT30;54893;49.864;19.084;2023-12-14T10:45:59;3.52;99.99
68109;SHT30;54893;49.864;19.084;2023-12-14T10:51:01;3.52;99.99
68109;SHT30;54893;49.864;19.084;2023-12-14T10:56:06;3.55;99.99
68109;SHT30;54893;49.864;19.084;2023-12-14T11:01:13;3.55;99.99
68109;SHT30;54893;49.864;19.084;2023-12-14T11:06:21;3.66;99.99
68109;SHT30;54893;49.864;19.084;2023-12-14T11:11:29;3.58;99.99
68109;SHT30;54893;49.864;19.084;2023-12-14T11:16:30;3.60;99.99
68109;SHT30;54893;49.864;19.084;2023-12-14T11:21:30;3.63;99.99
68109;SHT30;54893;49.864;19.084;2023-12-14T11:26:31;3.64;99.99
68109;SHT30;54893;49.864;19.084;2023-12-14T11:31:31;3.59;99.99
68109;SHT30;54893;49.864;19.084;2023-12-14T11:36:31;3.62;99.99
68109;SHT30;54893;49.864;19.084;2023-12-14T11:41:32;3.58;99.99
68109;SHT30;54893;49.864;19.084;2023-12-14T11:46:34;3.66;99.99
68109;SHT30;54893;49.864;19.084;2023-12-14T11:51:34;3.50;99.99
68109;SHT30;54893;49.864;19.084;2023-12-14T11:56:35;3.43;99.99
68109;SHT30;54893;49.864;19.084;2023-12-14T12:01:36;3.50;99.99
68109;SHT30;54893;49.864;19.084;2023-12-14T12:06:37;3.50;99.99
68109;SHT30;54893;49.864;19.084;2023-12-14T12:11:37;3.55;99.99
68109;SHT30;54893;49.864;19.084;2023-12-14T12:16:38;3.52;99.99
68109;SHT30;54893;49.864;19.084;2023-12-14T12:21:39;3.58;99.99
68109;SHT30;54893;49.864;19.084;2023-12-14T12:26:41;3.62;99.99
68109;SHT30;54893;49.864;19.084;2023-12-14T12:31:41;3.73;99.99
68109;SHT30;54893;49.864;19.084;2023-12-14T12:36:43;3.62;99.99
68109;SHT30;54893;49.864;19.084;2023-12-14T12:41:43;3.58;99.99
68109;SHT30;54893;49.864;19.084;2023-12-14T12:46:43;3.63;99.99
68109;SHT30;54893;49.864;19.084;2023-12-14T12:51:44;3.66;99.99
68109;SHT30;54893;49.864;19.084;2023-12-14T12:56:44;3.56;99.99
68109;SHT30;54893;49.864;19.084;2023-12-14T13:01:44;3.60;99.99
68109;SHT30;54893;49.864;19.084;2023-12-14T13:06:46;3.62;99.99
68109;SHT30;54893;49.864;19.084;2023-12-14T13:11:48;3.56;99.99
68109;SHT30;54893;49.864;19.084;2023-12-14T13:16:50;3.56;99.99
68109;SHT30;54893;49.864;19.084;2023-12-14T13:21:50;3.58;99.99
68109;SHT30;54893;49.864;19.084;2023-12-14T13:26:51;3.58;99.99
68109;SHT30;54893;49.864;19.084;2023-12-14T13:31:51;3.62;99.99
68109;SHT30;54893;49.864;19.084;2023-12-14T13:36:51;3.56;99.99
68109;SHT30;54893;49.864;19.084;2023-12-14T13:41:52;3.55;99.99
68109;SHT30;54893;49.864;19.084;2023-12-14T13:46:52;3.55;99.99
68109;SHT30;54893;49.864;19.084;2023-12-14T13:51:52;3.58;99.99
68109;SHT30;54893;49.864;19.084;2023-12-14T13:56:53;3.62;99.99
68109;SHT30;54893;49.864;19.084;2023-12-14T14:01:53;3.49;99.99
68109;SHT30;54893;49.864;19.084;2023-12-14T14:06:54;3.53;99.99
68109;SHT30;54893;49.864;19.084;2023-12-14T14:11:54;3.56;99.99
68109;SHT30;54893;49.864;19.084;2023-12-14T14:16:54;3.53;99.99
68109;SHT30;54893;49.864;19.084;2023-12-14T14:21:55;3.55;99.99
68109;SHT30;54893;49.864;19.084;2023-12-14T14:26:55;3.62;99.99
68109;SHT30;54893;49.864;19.084;2023-12-14T14:31:56;3.59;99.99
68109;SHT30;54893;49.864;19.084;2023-12-14T14:36:56;3.60;99.99
68109;SHT30;54893;49.864;19.084;2023-12-14T14:41:56;3.52;99.99
68109;SHT30;54893;49.864;19.084;2023-12-14T14:46:58;3.59;99.99
68109;SHT30;54893;49.864;19.084;2023-12-14T14:51:58;3.55;99.99
68109;SHT30;54893;49.864;19.084;2023-12-14T14:56:59;3.48;99.99
68109;SHT30;54893;49.864;19.084;2023-12-14T15:01:59;3.46;99.99
68109;SHT30;54893;49.864;19.084;2023-12-14T15:07:01;3.49;99.99
68109;SHT30;54893;49.864;19.084;2023-12-14T15:12:02;3.53;99.99
68109;SHT30;54893;49.864;19.084;2023-12-14T15:17:03;3.49;99.99
68109;SHT30;54893;49.864;19.084;2023-12-14T15:22:03;3.53;99.99
68109;SHT30;54893;49.864;19.084;2023-12-14T15:27:04;3.56;99.99
68109;SHT30;54893;49.864;19.084;2023-12-14T15:32:04;3.53;99.99
68109;SHT30;54893;49.864;19.084;2023-12-14T15:37:05;3.58;99.99
68109;SHT30;54893;49.864;19.084;2023-12-14T15:42:06;3.56;99.99
68109;SHT30;54893;49.864;19.084;2023-12-14T15:47:06;3.53;99.99
68109;SHT30;54893;49.864;19.084;2023-12-14T15:52:07;3.59;99.99
68109;SHT30;54893;49.864;19.084;2023-12-14T15:57:07;3.59;99.99
68109;SHT30;54893;49.864;19.084;2023-12-14T16:02:07;3.56;99.99
68109;SHT30;54893;49.864;19.084;2023-12-14T16:07:08;3.59;99.99
68109;SHT30;54893;49.864;19.084;2023-12-14T16:12:08;3.58;99.99
68109;SHT30;54893;49.864;19.084;2023-12-14T16:17:08;3.52;99.99
68109;SHT30;54893;49.864;19.084;2023-12-14T16:22:09;3.62;99.99
68109;SHT30;54893;49.864;19.084;2023-12-14T16:27:10;3.62;99.99
68109;SHT30;54893;49.864;19.084;2023-12-14T16:32:10;3.69;99.99
68109;SHT30;54893;49.864;19.084;2023-12-14T16:37:11;3.67;99.99
68109;SHT30;54893;49.864;19.084;2023-12-14T16:42:11;3.59;99.99
68109;SHT30;54893;49.864;19.084;2023-12-14T16:47:11;3.62;99.99
68109;SHT30;54893;49.864;19.084;2023-12-14T16:52:12;3.60;99.99
68109;SHT30;54893;49.864;19.084;2023-12-14T16:57:14;3.53;99.99
68109;SHT30;54893;49.864;19.084;2023-12-14T17:02:15;3.55;99.99
68109;SHT30;54893;49.864;19.084;2023-12-14T17:07:15;3.49;99.99
68109;SHT30;54893;49.864;19.084;2023-12-14T17:12:15;3.52;99.99
68109;SHT30;54893;49.864;19.084;2023-12-14T17:17:16;3.53;99.99
68109;SHT30;54893;49.864;19.084;2023-12-14T17:22:16;3.56;99.99
68109;SHT30;54893;49.864;19.084;2023-12-14T17:27:16;3.59;99.99
68109;SHT30;54893;49.864;19.084;2023-12-14T17:32:17;3.64;99.99
68109;SHT30;54893;49.864;19.084;2023-12-14T17:37:17;3.69;99.99
68109;SHT30;54893;49.864;19.084;2023-12-14T17:42:20;3.62;99.99
68109;SHT30;54893;49.864;19.084;2023-12-14T17:47:20;3.63;99.99
68109;SHT30;54893;49.864;19.084;2023-12-14T17:52:21;3.64;99.99
68109;SHT30;54893;49.864;19.084;2023-12-14T17:57:21;3.64;99.99
68109;SHT30;54893;49.864;19.084;2023-12-14T18:02:21;3.59;99.99
68109;SHT30;54893;49.864;19.084;2023-12-14T18:07:22;3.66;99.99
68109;SHT30;54893;49.864;19.084;2023-12-14T18:12:22;3.53;99.99
68109;SHT30;54893;49.864;19.084;2023-12-14T18:17:23;3.58;99.99
68109;SHT30;54893;49.864;19.084;2023-12-14T18:22:23;3.67;99.99
68109;SHT30;54893;49.864;19.084;2023-12-14T18:27:24;3.72;99.99
68109;SHT30;54893;49.864;19.084;2023-12-14T18:32:27;3.70;99.99
68109;SHT30;54893;49.864;19.084;2023-12-14T18:37:27;3.69;99.99
68109;SHT30;54893;49.864;19.084;2023-12-14T18:42:28;3.64;99.99
68109;SHT30;54893;49.864;19.084;2023-12-14T18:47:28;3.69;99.99
68109;SHT30;54893;49.864;19.084;2023-12-14T18:52:29;3.66;99.99
68109;SHT30;54893;49.864;19.084;2023-12-14T18:57:29;3.76;99.99
68109;SHT30;54893;49.864;19.084;2023-12-14T19:02:31;3.67;99.99
68109;SHT30;54893;49.864;19.084;2023-12-14T19:07:34;3.66;99.99
68109;SHT30;54893;49.864;19.084;2023-12-14T19:12:36;3.53;99.99
68109;SHT30;54893;49.864;19.084;2023-12-14T19:17:36;3.56;99.99
68109;SHT30;54893;49.864;19.084;2023-12-14T19:22:38;3.53;99.99
68109;SHT30;54893;49.864;19.084;2023-12-14T19:27:41;3.48;99.99
68109;SHT30;54893;49.864;19.084;2023-12-14T19:32:41;3.49;99.99
68109;SHT30;54893;49.864;19.084;2023-12-14T19:37:41;3.46;99.99
68109;SHT30;54893;49.864;19.084;2023-12-14T19:42:42;3.63;99.99
68109;SHT30;54893;49.864;19.084;2023-12-14T19:47:42;3.46;99.99
68109;SHT30;54893;49.864;19.084;2023-12-14T19:52:43;3.55;99.99
68109;SHT30;54893;49.864;19.084;2023-12-14T19:57:43;3.49;99.99
68109;SHT30;54893;49.864;19.084;2023-12-14T20:02:44;3.35;99.99
68109;SHT30;54893;49.864;19.084;2023-12-14T20:07:44;3.28;99.99
68109;SHT30;54893;49.864;19.084;2023-12-14T20:12:44;3.38;99.99
68109;SHT30;54893;49.864;19.084;2023-12-14T20:17:45;3.48;99.99
68109;SHT30;54893;49.864;19.084;2023-12-14T20:22:45;3.52;99.99
68109;SHT30;54893;49.864;19.084;2023-12-14T20:27:46;3.40;99.99
68109;SHT30;54893;49.864;19.084;2023-12-14T20:32:46;3.25;99.99
68109;SHT30;54893;49.864;19.084;2023-12-14T20:37:48;3.26;99.99
68109;SHT30;54893;49.864;19.084;2023-12-14T20:42:50;3.25;99.99
68109;SHT30;54893;49.864;19.084;2023-12-14T20:47:50;3.18;99.99
68109;SHT30;54893;49.864;19.084;2023-12-14T20:52:51;3.15;99.99
68109;SHT30;54893;49.864;19.084;2023-12-14T20:57:51;3.19;99.99
68109;SHT30;54893;49.864;19.084;2023-12-14T21:02:51;3.06;99.99
68109;SHT30;54893;49.864;19.084;2023-12-14T21:07:52;3.01;99.99
68109;SHT30;54893;49.864;19.084;2023-12-14T21:12:52;2.96;99.99
68109;SHT30;54893;49.864;19.084;2023-12-14T21:17:52;3.09;99.99
68109;SHT30;54893;49.864;19.084;2023-12-14T21:22:53;2.95;99.99
68109;SHT30;54893;49.864;19.084;2023-12-14T21:27:53;3.01;99.99
68109;SHT30;54893;49.864;19.084;2023-12-14T21:32:57;3.04;99.99
68109;SHT30;54893;49.864;19.084;2023-12-14T21:37:57;2.92;99.99
68109;SHT30;54893;49.864;19.084;2023-12-14T21:42:57;2.92;99.99
68109;SHT30;54893;49.864;19.084;2023-12-14T21:47:58;2.77;99.99
68109;SHT30;54893;49.864;19.084;2023-12-14T21:52:58;2.74;99.99
68109;SHT30;54893;49.864;19.084;2023-12-14T21:57:59;2.72;99.99
68109;SHT30;54893;49.864;19.084;2023-12-14T22:02:59;2.71;99.99
68109;SHT30;54893;49.864;19.084;2023-12-14T22:08:00;2.74;99.99
68109;SHT30;54893;49.864;19.084;2023-12-14T22:13:00;2.64;99.99
68109;SHT30;54893;49.864;19.084;2023-12-14T22:18:01;2.61;99.99
68109;SHT30;54893;49.864;19.084;2023-12-14T22:23:01;2.57;99.99
68109;SHT30;54893;49.864;19.084;2023-12-14T22:28:01;2.50;99.99
68109;SHT30;54893;49.864;19.084;2023-12-14T22:33:02;2.57;99.99
68109;SHT30;54893;49.864;19.084;2023-12-14T22:38:02;2.41;99.99
68109;SHT30;54893;49.864;19.084;2023-12-14T22:43:05;2.45;99.99
68109;SHT30;54893;49.864;19.084;2023-12-14T22:48:05;2.44;99.99
68109;SHT30;54893;49.864;19.084;2023-12-14T22:53:06;2.42;99.99
68109;SHT30;54893;49.864;19.084;2023-12-14T22:58:06;2.36;99.99
68109;SHT30;54893;49.864;19.084;2023-12-14T23:03:06;2.26;99.99
68109;SHT30;54893;49.864;19.084;2023-12-14T23:08:07;2.33;99.99
68109;SHT30;54893;49.864;19.084;2023-12-14T23:13:07;2.27;99.99
68109;SHT30;54893;49.864;19.084;2023-12-14T23:18:07;2.37;99.99
68109;SHT30;54893;49.864;19.084;2023-12-14T23:23:08;2.33;99.99
68109;SHT30;54893;49.864;19.084;2023-12-14T23:28:08;2.38;99.99
68109;SHT30;54893;49.864;19.084;2023-12-14T23:33:08;2.37;99.99
68109;SHT30;54893;49.864;19.084;2023-12-14T23:38:09;2.60;99.99
68109;SHT30;54893;49.864;19.084;2023-12-14T23:43:09;2.40;99.99
68109;SHT30;54893;49.864;19.084;2023-12-14T23:48:10;2.50;99.99
68109;SHT30;54893;49.864;19.084;2023-12-14T23:53:10;2.41;99.99
68109;SHT30;54893;49.864;19.084;2023-12-14T23:58:10;2.47;99.99
